createdAt,value
2023-03-05T00:00:43.448Z,31.54
2023-03-05T00:03:12.625Z,31.61
2023-03-05T00:05:40.619Z,31.07
2023-03-05T00:08:08.608Z,31.74
2023-03-05T00:10:36.356Z,30.97
2023-03-05T00:13:04.639Z,30.89
2023-03-05T00:15:32.394Z,32.13
2023-03-05T00:18:00.256Z,31.77
2023-03-05T00:20:29.426Z,32.38
2023-03-05T00:22:57.190Z,32.07
2023-03-05T00:25:24.900Z,32.66
2023-03-05T00:27:52.640Z,32.53
2023-03-05T00:30:20.630Z,32.13
2023-03-05T00:32:48.404Z,32.61
2023-03-05T00:35:16.356Z,32.01
2023-03-05T00:37:45.485Z,32.01
2023-03-05T00:40:13.636Z,32.43
2023-03-05T00:42:41.473Z,33.53
2023-03-05T00:45:10.926Z,34.17
2023-03-05T00:47:39.307Z,34.60
2023-03-05T00:50:08.686Z,35.94
2023-03-05T00:52:36.443Z,35.99
2023-03-05T00:55:06.407Z,36.92
2023-03-05T00:57:34.372Z,37.18
2023-03-05T01:00:02.187Z,36.38
2023-03-05T01:02:29.958Z,35.63
2023-03-05T01:04:58.759Z,36.58
2023-03-05T01:07:26.913Z,36.66
2023-03-05T01:09:54.677Z,37.69
2023-03-05T01:12:23.834Z,39.25
2023-03-05T01:14:51.608Z,38.65
2023-03-05T01:17:19.375Z,39.29
2023-03-05T01:19:47.164Z,38.76
2023-03-05T01:22:15.080Z,39.85
2023-03-05T01:24:42.866Z,40.06
2023-03-05T01:27:10.756Z,40.40
2023-03-05T01:29:39.876Z,40.14
2023-03-05T01:32:07.799Z,39.47
2023-03-05T01:34:37.754Z,40.33
2023-03-05T01:37:05.750Z,40.20
2023-03-05T01:39:33.461Z,39.32
2023-03-05T01:42:01.372Z,38.65
2023-03-05T01:44:31.336Z,38.39
2023-03-05T01:47:01.184Z,38.96
2023-03-05T01:49:31.857Z,38.75
2023-03-05T01:52:05.041Z,39.49
2023-03-05T01:54:36.272Z,38.77
2023-03-05T01:57:10.185Z,39.36
2023-03-05T01:59:39.821Z,39.36
2023-03-05T02:02:09.264Z,39.51
2023-03-05T02:04:43.643Z,38.38
2023-03-05T02:07:12.743Z,39.52
2023-03-05T02:09:41.109Z,40.92
2023-03-05T02:12:11.486Z,39.88
2023-03-05T02:14:42.245Z,40.96
2023-03-05T02:17:13.308Z,42.05
2023-03-05T02:19:48.564Z,41.39
2023-03-05T02:22:18.362Z,40.80
2023-03-05T02:24:46.275Z,40.57
2023-03-05T02:27:14.907Z,40.71
2023-03-05T02:29:46.021Z,40.17
2023-03-05T02:32:15.165Z,41.22
2023-03-05T02:34:42.960Z,41.31
2023-03-05T02:37:10.798Z,41.28
2023-03-05T02:39:40.891Z,40.41
2023-03-05T02:42:09.933Z,40.40
2023-03-05T02:44:38.520Z,41.00
2023-03-05T02:47:06.833Z,40.00
2023-03-05T02:49:35.752Z,40.17
2023-03-05T02:52:04.291Z,39.21
2023-03-05T02:54:32.183Z,38.75
2023-03-05T02:57:01.373Z,40.29
2023-03-05T02:59:29.278Z,40.11
2023-03-05T03:01:57.182Z,39.00
2023-03-05T03:04:25.870Z,39.94
2023-03-05T03:06:53.674Z,39.55
2023-03-05T03:09:21.817Z,40.24
2023-03-05T03:11:49.587Z,39.98
2023-03-05T03:14:18.698Z,40.39
2023-03-05T03:16:46.556Z,39.80
2023-03-05T03:19:15.076Z,39.98
2023-03-05T03:21:42.865Z,39.74
2023-03-05T03:24:10.705Z,40.23
2023-03-05T03:26:38.539Z,39.98
2023-03-05T03:29:06.305Z,39.24
2023-03-05T03:31:35.488Z,38.81
2023-03-05T03:34:03.229Z,38.52
2023-03-05T03:36:32.035Z,38.83
2023-03-05T03:38:59.781Z,40.13
2023-03-05T03:41:27.530Z,39.61
2023-03-05T03:43:55.274Z,38.22
2023-03-05T03:46:23.331Z,39.16
2023-03-05T03:48:52.767Z,38.97
2023-03-05T03:51:20.580Z,39.81
2023-03-05T03:53:48.504Z,38.38
2023-03-05T03:56:16.323Z,37.62
2023-03-05T03:58:44.323Z,39.34
2023-03-05T04:01:12.265Z,40.04
2023-03-05T04:03:39.975Z,39.60
2023-03-05T04:06:09.575Z,39.21
2023-03-05T04:08:37.719Z,39.71
2023-03-05T04:11:06.733Z,40.07
2023-03-05T04:13:34.543Z,41.36
2023-03-05T04:16:02.602Z,39.42
2023-03-05T04:18:32.484Z,41.13
2023-03-05T04:21:00.394Z,40.13
2023-03-05T04:23:29.546Z,39.33
2023-03-05T04:25:57.287Z,40.01
2023-03-05T04:28:25.092Z,39.99
2023-03-05T04:30:53.225Z,39.44
2023-03-05T04:33:21.155Z,39.58
2023-03-05T04:35:49.094Z,38.69
2023-03-05T04:38:16.839Z,40.48
2023-03-05T04:40:46.564Z,40.46
2023-03-05T04:43:14.677Z,39.95
2023-03-05T04:45:44.162Z,41.01
2023-03-05T04:48:12.714Z,40.61
2023-03-05T04:50:40.606Z,39.82
2023-03-05T04:53:08.394Z,39.88
2023-03-05T04:55:36.110Z,40.10
2023-03-05T04:58:05.387Z,41.06
2023-03-05T05:00:33.199Z,41.10
2023-03-05T05:03:01.076Z,40.23
2023-03-05T05:05:29.976Z,40.64
2023-03-05T05:07:58.580Z,41.22
2023-03-05T05:10:27.431Z,40.79
2023-03-05T05:12:55.324Z,40.13
2023-03-05T05:15:24.973Z,41.04
2023-03-05T05:17:52.816Z,39.84
2023-03-05T05:20:20.682Z,41.29
2023-03-05T05:22:48.470Z,41.18
2023-03-05T05:25:16.298Z,41.05
2023-03-05T05:27:44.323Z,41.02
2023-03-05T05:30:13.074Z,40.51
2023-03-05T05:32:42.527Z,40.99
2023-03-05T05:35:11.771Z,41.49
2023-03-05T05:37:39.554Z,42.16
2023-03-05T05:40:09.495Z,41.41
2023-03-05T05:42:37.301Z,41.70
2023-03-05T05:45:06.051Z,42.09
2023-03-05T05:47:33.917Z,42.01
2023-03-05T05:50:03.112Z,41.93
2023-03-05T05:52:31.083Z,42.08
2023-03-05T05:54:58.841Z,41.78
2023-03-05T05:57:26.612Z,40.83
2023-03-05T05:59:54.383Z,41.16
2023-03-05T06:02:22.138Z,41.09
2023-03-05T06:04:49.967Z,41.14
2023-03-05T06:07:19.017Z,40.62
2023-03-05T06:09:46.822Z,43.11
2023-03-05T06:12:14.572Z,42.43
2023-03-05T06:14:42.324Z,40.98
2023-03-05T06:17:12.901Z,41.85
2023-03-05T06:19:42.632Z,41.48
2023-03-05T06:22:10.496Z,41.27
2023-03-05T06:24:40.232Z,41.64
2023-03-05T06:27:08.136Z,40.66
2023-03-05T06:29:35.928Z,40.98
2023-03-05T06:32:03.733Z,40.27
2023-03-05T06:34:31.579Z,40.05
2023-03-05T06:36:59.370Z,40.41
2023-03-05T06:39:27.097Z,40.81
2023-03-05T06:41:56.284Z,39.45
2023-03-05T06:44:24.116Z,40.89
2023-03-05T06:46:51.876Z,41.18
2023-03-05T06:49:19.860Z,39.89
2023-03-05T06:51:47.602Z,40.36
2023-03-05T06:54:18.177Z,40.18
2023-03-05T06:57:02.116Z,40.13
2023-03-05T06:59:31.342Z,41.50
2023-03-05T07:01:59.193Z,42.92
2023-03-05T07:04:27.021Z,44.25
2023-03-05T07:06:55.738Z,43.71
2023-03-05T07:09:23.494Z,44.54
2023-03-05T07:11:51.246Z,42.55
2023-03-05T07:14:18.994Z,43.04
2023-03-05T07:16:48.088Z,42.39
2023-03-05T07:19:15.908Z,41.91
2023-03-05T07:21:43.740Z,41.25
2023-03-05T07:24:13.610Z,41.29
2023-03-05T07:26:41.423Z,41.70
2023-03-05T07:29:09.177Z,42.23
2023-03-05T07:31:36.980Z,43.99
2023-03-05T07:34:06.577Z,41.89
2023-03-05T07:36:35.438Z,42.25
2023-03-05T07:39:04.733Z,41.96
2023-03-05T07:41:32.465Z,41.40
2023-03-05T07:44:00.344Z,42.29
2023-03-05T07:46:30.875Z,42.45
2023-03-05T07:48:58.707Z,42.38
2023-03-05T07:51:28.774Z,42.43
2023-03-05T07:53:58.562Z,43.74
2023-03-05T07:56:31.595Z,44.37
2023-03-05T07:58:59.943Z,42.77
2023-03-05T08:01:27.846Z,41.44
2023-03-05T08:03:55.601Z,41.59
2023-03-05T08:06:23.521Z,40.07
2023-03-05T08:08:52.681Z,40.08
2023-03-05T08:11:20.656Z,41.21
2023-03-05T08:13:48.464Z,42.61
2023-03-05T08:16:18.205Z,41.84
2023-03-05T08:18:46.588Z,41.98
2023-03-05T08:21:19.363Z,42.36
2023-03-05T08:23:47.635Z,42.10
2023-03-05T08:26:18.680Z,42.95
2023-03-05T08:28:46.582Z,44.18
2023-03-05T08:31:16.376Z,41.04
2023-03-05T08:33:44.441Z,42.35
2023-03-05T08:36:13.265Z,42.37
2023-03-05T08:38:41.942Z,42.88
2023-03-05T08:41:10.119Z,42.72
2023-03-05T08:43:39.590Z,42.76
2023-03-05T08:46:07.736Z,42.20
2023-03-05T08:48:35.627Z,41.98
2023-03-05T08:51:07.906Z,41.65
2023-03-05T08:53:35.773Z,42.04
2023-03-05T08:56:03.926Z,41.19
2023-03-05T08:58:32.423Z,41.69
2023-03-05T09:01:01.711Z,41.66
2023-03-05T09:03:29.719Z,40.37
2023-03-05T09:06:01.465Z,41.18
2023-03-05T09:08:29.587Z,41.01
2023-03-05T09:10:57.566Z,40.66
2023-03-05T09:13:25.528Z,40.88
2023-03-05T09:15:56.801Z,38.99
2023-03-05T09:18:26.819Z,39.73
2023-03-05T09:20:55.547Z,39.90
2023-03-05T09:23:24.011Z,40.67
2023-03-05T09:25:52.530Z,39.88
2023-03-05T09:28:20.529Z,40.90
2023-03-05T09:30:48.615Z,40.50
2023-03-05T09:33:16.657Z,41.36
2023-03-05T09:35:45.873Z,41.32
2023-03-05T09:38:13.674Z,41.21
2023-03-05T09:40:50.285Z,40.24
2023-03-05T09:43:31.593Z,38.62
2023-03-05T09:46:12.207Z,38.68
2023-03-05T09:48:50.628Z,39.64
2023-03-05T09:51:25.282Z,39.06
2023-03-05T09:54:03.053Z,41.26
2023-03-05T09:56:36.119Z,40.61
2023-03-05T09:59:13.649Z,40.32
2023-03-05T10:01:45.483Z,40.50
2023-03-05T10:04:17.494Z,40.68
2023-03-05T10:06:51.783Z,40.51
2023-03-05T10:09:40.068Z,41.95
2023-03-05T10:12:13.745Z,41.09
2023-03-05T10:14:42.831Z,41.49
2023-03-05T10:17:41.509Z,42.40
2023-03-05T10:20:36.379Z,43.04
2023-03-05T10:23:24.722Z,41.52
2023-03-05T10:26:27.306Z,40.90
2023-03-05T10:29:06.007Z,40.73
2023-03-05T10:31:53.887Z,41.00
2023-03-05T10:34:49.668Z,40.49
2023-03-05T10:37:38.455Z,40.10
2023-03-05T10:40:19.663Z,39.62
2023-03-05T10:42:57.562Z,39.60
2023-03-05T10:45:30.307Z,39.00
2023-03-05T10:48:02.500Z,39.21
2023-03-05T10:50:36.893Z,39.79
2023-03-05T10:53:14.979Z,39.74
2023-03-05T10:55:44.318Z,40.91
2023-03-05T10:58:13.660Z,41.04
2023-03-05T11:00:42.378Z,39.57
2023-03-05T11:03:11.909Z,40.59
2023-03-05T11:05:46.229Z,40.43
2023-03-05T11:08:33.190Z,40.97
2023-03-05T11:11:12.487Z,38.34
2023-03-05T11:13:50.957Z,39.08
2023-03-05T11:16:21.283Z,38.83
2023-03-05T11:18:49.342Z,38.79
2023-03-05T11:21:23.926Z,38.83
2023-03-05T11:24:13.668Z,39.15
2023-03-05T11:26:50.305Z,37.39
2023-03-05T11:29:22.229Z,38.15
2023-03-05T11:31:50.562Z,37.23
2023-03-05T11:34:35.252Z,37.29
2023-03-05T11:37:06.558Z,39.17
2023-03-05T11:39:38.381Z,37.41
2023-03-05T11:42:12.855Z,38.23
2023-03-05T11:44:47.933Z,37.50
2023-03-05T11:47:24.900Z,37.75
2023-03-05T11:50:02.699Z,37.89
2023-03-05T11:52:35.183Z,37.17
2023-03-05T11:55:08.066Z,36.37
2023-03-05T11:57:45.262Z,38.32
2023-03-05T12:00:17.123Z,37.39
2023-03-05T12:02:45.628Z,35.72
2023-03-05T12:05:16.768Z,37.65
2023-03-05T12:07:49.915Z,37.02
2023-03-05T12:10:19.831Z,37.14
2023-03-05T12:12:54.193Z,35.46
2023-03-05T12:15:49.187Z,34.11
2023-03-05T12:18:28.019Z,34.69
2023-03-05T12:21:05.674Z,34.45
2023-03-05T12:23:46.637Z,32.14
2023-03-05T12:26:14.553Z,32.57
2023-03-05T12:28:57.935Z,33.04
2023-03-05T12:31:37.974Z,32.47
2023-03-05T12:34:48.174Z,32.01
2023-03-05T12:37:54.937Z,31.44
2023-03-05T12:40:28.271Z,31.02
2023-03-05T12:42:58.090Z,31.41
2023-03-05T12:45:39.293Z,31.71
2023-03-05T12:48:35.905Z,33.10
2023-03-05T12:51:03.936Z,32.46
2023-03-05T12:53:31.801Z,33.58
2023-03-05T12:56:07.110Z,33.05
2023-03-05T12:58:40.785Z,32.62
2023-03-05T13:01:30.542Z,34.04
2023-03-05T13:04:01.441Z,34.88
2023-03-05T13:06:33.537Z,33.28
2023-03-05T13:09:03.454Z,34.22
2023-03-05T13:11:34.353Z,34.10
2023-03-05T13:14:02.686Z,32.36
2023-03-05T13:16:38.801Z,32.70
2023-03-05T13:19:17.454Z,33.38
2023-03-05T13:21:45.732Z,32.70
2023-03-05T13:24:18.106Z,33.02
2023-03-05T13:26:46.102Z,32.67
2023-03-05T13:29:15.481Z,33.82
2023-03-05T13:31:46.905Z,33.35
2023-03-05T13:34:22.094Z,31.39
2023-03-05T13:36:56.257Z,31.31
2023-03-05T13:39:27.837Z,30.09
2023-03-05T13:41:58.839Z,29.31
2023-03-05T13:44:29.680Z,28.96
2023-03-05T13:47:11.153Z,28.22
2023-03-05T13:49:39.406Z,27.29
2023-03-05T13:52:07.666Z,27.00
2023-03-05T13:54:35.716Z,26.58
2023-03-05T13:57:05.643Z,27.60
2023-03-05T13:59:35.389Z,27.49
2023-03-05T14:02:06.296Z,27.00
2023-03-05T14:04:38.562Z,25.76
2023-03-05T14:07:08.930Z,25.50
2023-03-05T14:09:47.349Z,27.06
2023-03-05T14:12:28.173Z,26.02
2023-03-05T14:14:56.998Z,26.52
2023-03-05T14:17:36.852Z,25.24
2023-03-05T14:20:19.578Z,27.12
2023-03-05T14:22:49.003Z,29.78
2023-03-05T14:25:36.298Z,27.55
2023-03-05T14:28:06.022Z,26.92
2023-03-05T14:30:36.088Z,27.34
2023-03-05T14:33:04.853Z,26.31
2023-03-05T14:35:34.389Z,26.16
2023-03-05T14:38:02.437Z,25.89
2023-03-05T14:40:32.818Z,27.96
2023-03-05T14:43:01.491Z,26.96
2023-03-05T14:45:30.984Z,25.34
2023-03-05T14:48:00.633Z,24.33
2023-03-05T14:50:31.434Z,27.24
2023-03-05T14:53:03.851Z,26.73
2023-03-05T14:55:33.538Z,26.96
2023-03-05T14:58:05.328Z,26.19
2023-03-05T15:00:33.933Z,27.08
2023-03-05T15:03:02.119Z,27.18
2023-03-05T15:05:30.357Z,28.00
2023-03-05T15:07:58.268Z,28.19
2023-03-05T15:10:27.595Z,27.35
2023-03-05T15:12:55.445Z,27.72
2023-03-05T15:15:23.954Z,29.82
2023-03-05T15:17:54.904Z,29.71
2023-03-05T15:20:24.742Z,30.19
2023-03-05T15:22:52.776Z,29.74
2023-03-05T15:25:22.101Z,29.42
2023-03-05T15:27:51.757Z,29.00
2023-03-05T15:30:23.777Z,30.40
2023-03-05T15:32:52.509Z,29.88
2023-03-05T15:35:20.870Z,29.69
2023-03-05T15:37:48.758Z,29.65
2023-03-05T15:40:16.702Z,31.49
2023-03-05T15:42:45.012Z,31.71
2023-03-05T15:45:14.603Z,30.61
2023-03-05T15:47:42.605Z,32.55
2023-03-05T15:50:11.892Z,31.81
2023-03-05T15:52:39.731Z,32.71
2023-03-05T15:55:08.699Z,32.89
2023-03-05T15:57:37.958Z,31.82
2023-03-05T16:00:08.047Z,30.80
2023-03-05T16:02:39.359Z,31.73
2023-03-05T16:05:08.536Z,31.99
2023-03-05T16:07:40.070Z,33.08
2023-03-05T16:10:11.986Z,34.14
2023-03-05T16:12:43.007Z,32.29
2023-03-05T16:15:12.954Z,32.03
2023-03-05T16:17:45.270Z,32.73
2023-03-05T16:20:14.400Z,33.60
2023-03-05T16:22:42.351Z,34.10
2023-03-05T16:25:10.567Z,34.01
2023-03-05T16:27:38.379Z,34.48
2023-03-05T16:30:07.723Z,34.29
2023-03-05T16:32:35.592Z,35.30
2023-03-05T16:35:05.561Z,37.70
2023-03-05T16:37:33.660Z,36.27
2023-03-05T16:40:01.594Z,36.67
2023-03-05T16:42:29.588Z,35.66
2023-03-05T16:44:58.435Z,35.32
2023-03-05T16:47:26.576Z,34.66
2023-03-05T16:49:54.497Z,33.96
2023-03-05T16:52:24.064Z,34.05
2023-03-05T16:54:51.913Z,33.64
2023-03-05T16:57:21.904Z,34.95
2023-03-05T16:59:49.716Z,34.84
2023-03-05T17:02:17.487Z,34.45
2023-03-05T17:04:46.041Z,34.55
2023-03-05T17:07:13.966Z,34.68
2023-03-05T17:09:44.388Z,35.12
2023-03-05T17:12:12.236Z,35.26
2023-03-05T17:14:40.011Z,35.87
2023-03-05T17:17:07.887Z,35.40
2023-03-05T17:19:35.698Z,35.21
2023-03-05T17:22:03.848Z,35.62
2023-03-05T17:24:33.007Z,37.22
2023-03-05T17:27:02.165Z,38.61
2023-03-05T17:29:30.664Z,39.03
2023-03-05T17:31:58.481Z,38.54
2023-03-05T17:34:36.075Z,40.72
2023-03-05T17:37:05.330Z,39.62
2023-03-05T17:39:33.530Z,40.73
2023-03-05T17:42:02.793Z,40.73
2023-03-05T17:44:30.750Z,39.97
2023-03-05T17:46:58.521Z,39.32
2023-03-05T17:49:26.360Z,39.67
2023-03-05T17:51:54.233Z,40.10
2023-03-05T17:54:22.122Z,39.32
2023-03-05T17:56:49.899Z,39.18
2023-03-05T17:59:19.134Z,39.84
2023-03-05T18:01:47.049Z,39.74
2023-03-05T18:04:15.210Z,39.41
2023-03-05T18:06:43.025Z,39.51
2023-03-05T18:09:10.803Z,40.13
2023-03-05T18:11:39.028Z,40.83
2023-03-05T18:14:06.776Z,38.93
2023-03-05T18:16:36.463Z,39.62
2023-03-05T18:19:04.636Z,39.08
2023-03-05T18:21:32.667Z,38.63
2023-03-05T18:24:00.577Z,38.50
2023-03-05T18:26:28.341Z,38.13
2023-03-05T18:28:56.465Z,38.09
2023-03-05T18:31:24.182Z,38.38
2023-03-05T18:33:53.356Z,38.50
2023-03-05T18:36:21.086Z,39.39
2023-03-05T18:38:48.807Z,39.24
2023-03-05T18:41:21.514Z,38.10
2023-03-05T18:43:50.431Z,37.64
2023-03-05T18:46:18.774Z,38.40
2023-03-05T18:48:47.935Z,39.46
2023-03-05T18:51:19.027Z,38.43
2023-03-05T18:53:47.122Z,39.39
2023-03-05T18:56:15.089Z,38.13
2023-03-05T18:58:42.909Z,37.15
2023-03-05T19:01:11.255Z,37.94
2023-03-05T19:03:39.023Z,38.41
2023-03-05T19:06:07.805Z,38.24
2023-03-05T19:08:37.513Z,37.43
2023-03-05T19:11:15.952Z,38.26
2023-03-05T19:13:48.785Z,38.22
2023-03-05T19:16:18.293Z,38.07
2023-03-05T19:18:57.158Z,38.43
2023-03-05T19:21:25.088Z,38.28
2023-03-05T19:23:54.226Z,37.87
2023-03-05T19:26:21.991Z,37.64
2023-03-05T19:28:49.874Z,38.10
2023-03-05T19:31:17.785Z,37.91
2023-03-05T19:33:45.610Z,37.35
2023-03-05T19:36:14.089Z,37.87
2023-03-05T19:38:42.934Z,38.19
2023-03-05T19:41:13.108Z,40.46
2023-03-05T19:43:41.206Z,41.33
2023-03-05T19:46:09.927Z,40.74
2023-03-05T19:48:39.198Z,43.92
2023-03-05T19:51:10.333Z,45.24
2023-03-05T19:53:38.427Z,44.47
2023-03-05T19:56:07.603Z,44.12
2023-03-05T19:58:37.854Z,43.42
2023-03-05T20:01:10.582Z,44.67
2023-03-05T20:03:38.987Z,43.00
2023-03-05T20:06:07.910Z,42.91
2023-03-05T20:08:35.998Z,43.48
2023-03-05T20:11:03.966Z,43.54
2023-03-05T20:13:31.898Z,43.41
2023-03-05T20:16:01.046Z,44.22
2023-03-05T20:18:28.920Z,44.28
2023-03-05T20:20:58.782Z,44.22
2023-03-05T20:23:26.591Z,45.55
2023-03-05T20:25:54.704Z,44.26
2023-03-05T20:28:25.942Z,44.99
2023-03-05T20:30:57.692Z,46.03
2023-03-05T20:33:28.200Z,45.13
2023-03-05T20:35:56.737Z,44.59
2023-03-05T20:38:26.008Z,42.06
2023-03-05T20:40:55.579Z,41.78
2023-03-05T20:43:24.438Z,41.69
2023-03-05T20:45:53.639Z,42.64
2023-03-05T20:48:21.763Z,42.50
2023-03-05T20:50:50.878Z,41.29
2023-03-05T20:53:19.142Z,39.92
2023-03-05T20:55:47.195Z,40.80
2023-03-05T20:58:15.130Z,41.15
2023-03-05T21:00:43.460Z,40.39
2023-03-05T21:03:11.353Z,39.39
2023-03-05T21:05:39.390Z,41.11
2023-03-05T21:08:08.604Z,43.01
2023-03-05T21:10:36.307Z,42.82
2023-03-05T21:13:04.038Z,41.47
2023-03-05T21:15:31.975Z,40.25
2023-03-05T21:18:00.256Z,40.52
2023-03-05T21:20:30.194Z,40.61
2023-03-05T21:22:58.569Z,42.68
2023-03-05T21:25:29.087Z,41.03
2023-03-05T21:27:59.388Z,41.31
2023-03-05T21:30:31.438Z,41.09
2023-03-05T21:32:59.668Z,40.90
2023-03-05T21:35:27.962Z,41.08
2023-03-05T21:37:55.737Z,41.57
2023-03-05T21:40:23.617Z,41.66
2023-03-05T21:42:52.895Z,42.00
2023-03-05T21:45:22.646Z,41.36
2023-03-05T21:47:52.099Z,40.92
2023-03-05T21:50:21.238Z,40.89
2023-03-05T21:52:49.053Z,41.20
2023-03-05T21:55:18.842Z,41.03
2023-03-05T21:57:47.040Z,40.68
2023-03-05T22:00:18.127Z,40.94
2023-03-05T22:02:46.582Z,40.51
2023-03-05T22:05:15.564Z,39.83
2023-03-05T22:07:44.368Z,39.88
2023-03-05T22:10:13.784Z,39.82
2023-03-05T22:12:53.228Z,39.64
2023-03-05T22:15:23.194Z,40.78
2023-03-05T22:17:51.036Z,40.70
2023-03-05T22:20:19.637Z,40.52
2023-03-05T22:22:47.492Z,39.97
2023-03-05T22:25:16.502Z,39.99
2023-03-05T22:27:44.908Z,40.28
2023-03-05T22:30:14.019Z,40.91
2023-03-05T22:32:43.282Z,40.37
2023-03-05T22:35:13.944Z,40.09
2023-03-05T22:37:42.315Z,41.02
2023-03-05T22:40:14.533Z,40.60
2023-03-05T22:42:42.418Z,40.52
2023-03-05T22:45:11.131Z,40.52
2023-03-05T22:47:38.981Z,41.08
2023-03-05T22:50:09.337Z,40.88
2023-03-05T22:52:37.082Z,41.19
2023-03-05T22:55:05.588Z,40.69
2023-03-05T22:57:33.990Z,40.91
2023-03-05T23:00:01.894Z,40.99
2023-03-05T23:02:29.647Z,40.63
2023-03-05T23:05:00.366Z,40.31
2023-03-05T23:07:31.541Z,41.63
2023-03-05T23:10:01.920Z,43.81
2023-03-05T23:12:32.317Z,43.22
2023-03-05T23:15:01.261Z,43.61
2023-03-05T23:17:29.000Z,42.97
2023-03-05T23:19:56.785Z,41.66
2023-03-05T23:22:24.643Z,42.63
2023-03-05T23:24:54.021Z,42.69
2023-03-05T23:27:21.805Z,44.06
2023-03-05T23:29:58.966Z,42.59
2023-03-05T23:32:29.324Z,43.55
2023-03-05T23:34:57.539Z,43.03
2023-03-05T23:37:25.340Z,43.16
2023-03-05T23:39:54.471Z,43.19
2023-03-05T23:42:22.348Z,43.11
2023-03-05T23:44:50.093Z,43.81
2023-03-05T23:47:17.839Z,44.98
2023-03-05T23:49:45.605Z,44.99
2023-03-05T23:52:13.393Z,45.03
2023-03-05T23:54:41.138Z,43.64
2023-03-05T23:57:10.260Z,44.19
2023-03-05T23:59:38.076Z,43.69
